sensor_id;sensor_type;location;lat;lon;timestamp;pressure;altitude;pressure_sealevel;temperature;humidity
11329;BME280;5719;42.714;23.732;2023-03-26T00:00:06;93810.69;;;10.67;100.00
11329;BME280;5719;42.714;23.732;2023-03-26T00:02:39;93821.63;;;9.87;100.00
11329;BME280;5719;42.714;23.732;2023-03-26T00:05:08;93831.69;;;9.58;100.00
11329;BME280;5719;42.714;23.732;2023-03-26T00:07:35;93831.31;;;9.51;100.00
11329;BME280;5719;42.714;23.732;2023-03-26T00:10:02;93806.34;;;9.41;100.00
11329;BME280;5719;42.714;23.732;2023-03-26T00:12:30;93823.72;;;9.50;100.00
11329;BME280;5719;42.714;23.732;2023-03-26T00:14:57;93819.00;;;9.55;100.00
11329;BME280;5719;42.714;23.732;2023-03-26T00:17:24;93835.25;;;9.77;100.00
11329;BME280;5719;42.714;23.732;2023-03-26T00:19:51;93839.69;;;9.98;100.00
11329;BME280;5719;42.714;23.732;2023-03-26T00:22:19;93838.84;;;9.97;100.00
11329;BME280;5719;42.714;23.732;2023-03-26T00:24:48;93840.47;;;9.98;100.00
11329;BME280;5719;42.714;23.732;2023-03-26T00:27:15;93848.03;;;9.90;100.00
11329;BME280;5719;42.714;23.732;2023-03-26T00:29:44;93857.81;;;9.75;100.00
11329;BME280;5719;42.714;23.732;2023-03-26T00:32:12;93851.94;;;9.62;100.00
11329;BME280;5719;42.714;23.732;2023-03-26T00:34:39;93818.66;;;9.37;100.00
11329;BME280;5719;42.714;23.732;2023-03-26T00:37:06;93843.28;;;9.52;100.00
11329;BME280;5719;42.714;23.732;2023-03-26T00:39:33;93842.56;;;9.61;100.00
11329;BME280;5719;42.714;23.732;2023-03-26T00:42:02;93832.66;;;9.89;100.00
11329;BME280;5719;42.714;23.732;2023-03-26T00:44:31;93841.69;;;9.94;100.00
11329;BME280;5719;42.714;23.732;2023-03-26T00:47:00;93853.34;;;10.09;100.00
11329;BME280;5719;42.714;23.732;2023-03-26T00:49:28;93850.59;;;10.33;100.00
11329;BME280;5719;42.714;23.732;2023-03-26T00:51:55;93853.19;;;10.54;100.00
11329;BME280;5719;42.714;23.732;2023-03-26T00:54:22;93848.47;;;10.79;100.00
11329;BME280;5719;42.714;23.732;2023-03-26T00:56:49;93838.22;;;10.89;100.00
11329;BME280;5719;42.714;23.732;2023-03-26T00:59:20;93847.13;;;11.06;100.00
11329;BME280;5719;42.714;23.732;2023-03-26T01:01:48;93847.81;;;11.08;100.00
11329;BME280;5719;42.714;23.732;2023-03-26T01:04:26;93850.41;;;11.08;100.00
11329;BME280;5719;42.714;23.732;2023-03-26T01:06:55;93847.78;;;10.57;100.00
11329;BME280;5719;42.714;23.732;2023-03-26T01:09:28;93841.91;;;10.55;100.00
11329;BME280;5719;42.714;23.732;2023-03-26T01:11:57;93807.72;;;10.42;100.00
11329;BME280;5719;42.714;23.732;2023-03-26T01:14:25;93838.25;;;10.37;100.00
11329;BME280;5719;42.714;23.732;2023-03-26T01:16:55;93842.53;;;10.26;100.00
11329;BME280;5719;42.714;23.732;2023-03-26T01:19:28;93841.50;;;10.18;100.00
11329;BME280;5719;42.714;23.732;2023-03-26T01:21:58;93837.13;;;9.87;100.00
11329;BME280;5719;42.714;23.732;2023-03-26T01:24:26;93860.38;;;9.75;100.00
11329;BME280;5719;42.714;23.732;2023-03-26T01:27:22;93865.81;;;9.50;100.00
11329;BME280;5719;42.714;23.732;2023-03-26T01:29:54;93867.22;;;9.21;100.00
11329;BME280;5719;42.714;23.732;2023-03-26T01:32:30;93871.22;;;9.36;100.00
11329;BME280;5719;42.714;23.732;2023-03-26T01:35:14;93871.31;;;9.12;100.00
11329;BME280;5719;42.714;23.732;2023-03-26T01:37:53;93872.84;;;9.26;100.00
11329;BME280;5719;42.714;23.732;2023-03-26T01:40:27;93871.66;;;9.41;100.00
11329;BME280;5719;42.714;23.732;2023-03-26T01:43:02;93872.72;;;9.61;100.00
11329;BME280;5719;42.714;23.732;2023-03-26T01:45:33;93866.97;;;9.57;100.00
11329;BME280;5719;42.714;23.732;2023-03-26T01:48:02;93863.56;;;9.57;100.00
11329;BME280;5719;42.714;23.732;2023-03-26T01:50:29;93872.16;;;9.46;100.00
11329;BME280;5719;42.714;23.732;2023-03-26T01:52:56;93873.81;;;9.36;100.00
11329;BME280;5719;42.714;23.732;2023-03-26T01:55:27;93870.25;;;9.15;100.00
11329;BME280;5719;42.714;23.732;2023-03-26T01:58:02;93863.81;;;9.09;100.00
11329;BME280;5719;42.714;23.732;2023-03-26T02:00:38;93867.34;;;9.08;100.00
11329;BME280;5719;42.714;23.732;2023-03-26T02:03:11;93865.31;;;8.90;100.00
11329;BME280;5719;42.714;23.732;2023-03-26T02:05:49;93874.22;;;8.85;100.00
11329;BME280;5719;42.714;23.732;2023-03-26T02:08:21;93870.00;;;8.84;100.00
11329;BME280;5719;42.714;23.732;2023-03-26T02:10:53;93868.38;;;8.83;100.00
11329;BME280;5719;42.714;23.732;2023-03-26T02:13:22;93867.88;;;8.78;100.00
11329;BME280;5719;42.714;23.732;2023-03-26T02:15:57;93876.09;;;8.83;100.00
11329;BME280;5719;42.714;23.732;2023-03-26T02:18:24;93879.72;;;8.81;100.00
11329;BME280;5719;42.714;23.732;2023-03-26T02:21:02;93878.28;;;8.66;100.00
11329;BME280;5719;42.714;23.732;2023-03-26T02:23:30;93887.78;;;8.76;100.00
11329;BME280;5719;42.714;23.732;2023-03-26T02:26:02;93888.94;;;8.72;100.00
11329;BME280;5719;42.714;23.732;2023-03-26T02:28:30;93877.56;;;8.64;100.00
11329;BME280;5719;42.714;23.732;2023-03-26T02:30:57;93885.88;;;8.67;100.00
11329;BME280;5719;42.714;23.732;2023-03-26T02:33:26;93872.28;;;8.54;100.00
11329;BME280;5719;42.714;23.732;2023-03-26T02:35:54;93876.72;;;8.52;100.00
11329;BME280;5719;42.714;23.732;2023-03-26T02:38:24;93876.72;;;8.52;100.00
11329;BME280;5719;42.714;23.732;2023-03-26T02:40:51;93881.50;;;8.46;100.00
11329;BME280;5719;42.714;23.732;2023-03-26T02:43:20;93881.38;;;8.47;100.00
11329;BME280;5719;42.714;23.732;2023-03-26T02:45:47;93876.19;;;8.36;100.00
11329;BME280;5719;42.714;23.732;2023-03-26T02:48:14;93884.28;;;8.43;100.00
11329;BME280;5719;42.714;23.732;2023-03-26T02:50:41;93876.13;;;8.25;100.00
11329;BME280;5719;42.714;23.732;2023-03-26T02:53:09;93873.56;;;8.25;100.00
11329;BME280;5719;42.714;23.732;2023-03-26T02:55:36;93860.25;;;8.07;100.00
11329;BME280;5719;42.714;23.732;2023-03-26T02:58:03;93877.72;;;8.15;100.00
11329;BME280;5719;42.714;23.732;2023-03-26T03:00:32;93887.66;;;8.08;100.00
11329;BME280;5719;42.714;23.732;2023-03-26T03:02:59;93887.69;;;8.19;100.00
11329;BME280;5719;42.714;23.732;2023-03-26T03:05:29;93888.13;;;8.13;100.00
11329;BME280;5719;42.714;23.732;2023-03-26T03:07:56;93886.09;;;8.06;100.00
11329;BME280;5719;42.714;23.732;2023-03-26T03:10:23;93899.78;;;8.06;100.00
11329;BME280;5719;42.714;23.732;2023-03-26T03:12:51;93903.63;;;8.01;100.00
11329;BME280;5719;42.714;23.732;2023-03-26T03:15:18;93902.69;;;8.02;100.00
11329;BME280;5719;42.714;23.732;2023-03-26T03:17:46;93886.03;;;7.95;100.00
11329;BME280;5719;42.714;23.732;2023-03-26T03:20:13;93904.56;;;8.00;100.00
11329;BME280;5719;42.714;23.732;2023-03-26T03:22:41;93906.81;;;8.04;100.00
11329;BME280;5719;42.714;23.732;2023-03-26T03:25:09;93908.28;;;7.96;100.00
11329;BME280;5719;42.714;23.732;2023-03-26T03:27:39;93909.47;;;8.03;100.00
11329;BME280;5719;42.714;23.732;2023-03-26T03:30:08;93895.34;;;7.84;100.00
11329;BME280;5719;42.714;23.732;2023-03-26T03:32:37;93907.91;;;7.89;100.00
11329;BME280;5719;42.714;23.732;2023-03-26T03:35:05;93914.50;;;7.80;100.00
11329;BME280;5719;42.714;23.732;2023-03-26T03:37:33;93909.34;;;7.80;100.00
11329;BME280;5719;42.714;23.732;2023-03-26T03:39:59;93911.44;;;7.75;100.00
11329;BME280;5719;42.714;23.732;2023-03-26T03:42:26;93914.94;;;7.74;100.00
11329;BME280;5719;42.714;23.732;2023-03-26T03:44:53;93916.59;;;7.75;100.00
11329;BME280;5719;42.714;23.732;2023-03-26T03:47:20;93933.16;;;7.71;100.00
11329;BME280;5719;42.714;23.732;2023-03-26T03:49:47;93935.44;;;7.63;100.00
11329;BME280;5719;42.714;23.732;2023-03-26T03:52:17;93938.53;;;7.56;100.00
11329;BME280;5719;42.714;23.732;2023-03-26T03:54:44;93939.28;;;7.45;100.00
11329;BME280;5719;42.714;23.732;2023-03-26T03:57:10;93943.06;;;7.52;100.00
11329;BME280;5719;42.714;23.732;2023-03-26T03:59:40;93947.09;;;7.56;100.00
11329;BME280;5719;42.714;23.732;2023-03-26T04:02:07;93963.22;;;7.71;100.00
11329;BME280;5719;42.714;23.732;2023-03-26T04:04:34;93972.84;;;7.93;100.00
11329;BME280;5719;42.714;23.732;2023-03-26T04:07:02;93964.75;;;8.10;100.00
11329;BME280;5719;42.714;23.732;2023-03-26T04:09:30;93968.06;;;8.12;100.00
11329;BME280;5719;42.714;23.732;2023-03-26T04:11:57;93962.34;;;8.32;100.00
11329;BME280;5719;42.714;23.732;2023-03-26T04:14:24;93968.16;;;8.47;100.00
11329;BME280;5719;42.714;23.732;2023-03-26T04:16:51;93961.53;;;8.19;100.00
11329;BME280;5719;42.714;23.732;2023-03-26T04:19:18;93988.28;;;7.93;100.00
11329;BME280;5719;42.714;23.732;2023-03-26T04:21:44;93985.31;;;7.73;100.00
11329;BME280;5719;42.714;23.732;2023-03-26T04:24:11;93990.25;;;7.89;100.00
11329;BME280;5719;42.714;23.732;2023-03-26T04:26:40;94000.41;;;8.27;100.00
11329;BME280;5719;42.714;23.732;2023-03-26T04:29:07;94001.47;;;8.24;100.00
11329;BME280;5719;42.714;23.732;2023-03-26T04:31:38;93994.66;;;8.23;100.00
11329;BME280;5719;42.714;23.732;2023-03-26T04:34:08;93993.97;;;8.34;100.00
11329;BME280;5719;42.714;23.732;2023-03-26T04:36:38;94001.75;;;8.45;100.00
11329;BME280;5719;42.714;23.732;2023-03-26T04:39:09;93985.91;;;8.62;100.00
11329;BME280;5719;42.714;23.732;2023-03-26T04:41:37;93981.06;;;8.81;100.00
11329;BME280;5719;42.714;23.732;2023-03-26T04:44:06;94001.06;;;9.13;100.00
11329;BME280;5719;42.714;23.732;2023-03-26T04:46:32;94005.94;;;9.28;100.00
11329;BME280;5719;42.714;23.732;2023-03-26T04:49:00;94013.09;;;9.36;100.00
11329;BME280;5719;42.714;23.732;2023-03-26T04:51:32;94013.72;;;9.16;100.00
11329;BME280;5719;42.714;23.732;2023-03-26T04:54:03;94019.63;;;9.18;100.00
11329;BME280;5719;42.714;23.732;2023-03-26T04:56:38;94020.66;;;9.15;100.00
11329;BME280;5719;42.714;23.732;2023-03-26T04:59:11;94027.97;;;8.98;100.00
11329;BME280;5719;42.714;23.732;2023-03-26T05:01:39;94031.38;;;8.74;100.00
11329;BME280;5719;42.714;23.732;2023-03-26T05:04:10;94030.72;;;8.83;100.00
11329;BME280;5719;42.714;23.732;2023-03-26T05:06:37;94032.31;;;8.97;100.00
11329;BME280;5719;42.714;23.732;2023-03-26T05:09:04;94030.66;;;8.96;100.00
11329;BME280;5719;42.714;23.732;2023-03-26T05:11:33;94034.06;;;8.49;100.00
11329;BME280;5719;42.714;23.732;2023-03-26T05:14:00;94034.41;;;8.45;100.00
11329;BME280;5719;42.714;23.732;2023-03-26T05:16:28;94046.56;;;8.90;100.00
11329;BME280;5719;42.714;23.732;2023-03-26T05:18:56;94044.53;;;8.82;100.00
11329;BME280;5719;42.714;23.732;2023-03-26T05:21:23;94051.22;;;9.09;100.00
11329;BME280;5719;42.714;23.732;2023-03-26T05:23:49;94043.78;;;9.28;100.00
11329;BME280;5719;42.714;23.732;2023-03-26T05:26:17;94055.81;;;8.81;100.00
11329;BME280;5719;42.714;23.732;2023-03-26T05:28:44;94061.81;;;8.93;100.00
11329;BME280;5719;42.714;23.732;2023-03-26T05:31:11;94057.88;;;9.35;100.00
11329;BME280;5719;42.714;23.732;2023-03-26T05:33:41;94039.34;;;9.41;100.00
11329;BME280;5719;42.714;23.732;2023-03-26T05:36:10;94043.75;;;9.74;99.71
11329;BME280;5719;42.714;23.732;2023-03-26T05:38:40;94049.50;;;10.00;95.67
11329;BME280;5719;42.714;23.732;2023-03-26T05:41:09;94049.66;;;9.87;96.96
11329;BME280;5719;42.714;23.732;2023-03-26T05:43:36;94049.06;;;10.28;95.60
11329;BME280;5719;42.714;23.732;2023-03-26T05:46:03;94052.22;;;10.20;95.04
11329;BME280;5719;42.714;23.732;2023-03-26T05:48:30;94052.75;;;10.68;90.20
11329;BME280;5719;42.714;23.732;2023-03-26T05:50:59;94050.03;;;11.13;89.30
11329;BME280;5719;42.714;23.732;2023-03-26T05:53:26;94036.88;;;11.78;83.79
11329;BME280;5719;42.714;23.732;2023-03-26T05:55:53;94047.06;;;11.91;82.85
11329;BME280;5719;42.714;23.732;2023-03-26T05:58:23;94045.22;;;12.42;83.65
11329;BME280;5719;42.714;23.732;2023-03-26T06:00:55;94046.34;;;12.19;82.68
11329;BME280;5719;42.714;23.732;2023-03-26T06:03:23;94052.53;;;11.35;84.83
11329;BME280;5719;42.714;23.732;2023-03-26T06:05:50;94059.81;;;11.62;83.59
11329;BME280;5719;42.714;23.732;2023-03-26T06:08:19;94050.25;;;11.62;84.37
11329;BME280;5719;42.714;23.732;2023-03-26T06:10:46;94046.28;;;11.38;83.29
11329;BME280;5719;42.714;23.732;2023-03-26T06:13:14;94054.03;;;11.38;84.43
11329;BME280;5719;42.714;23.732;2023-03-26T06:15:41;94051.38;;;11.49;85.47
11329;BME280;5719;42.714;23.732;2023-03-26T06:18:08;94050.59;;;11.69;85.38
11329;BME280;5719;42.714;23.732;2023-03-26T06:20:35;94061.06;;;11.67;85.30
11329;BME280;5719;42.714;23.732;2023-03-26T06:23:02;94072.25;;;12.09;84.16
11329;BME280;5719;42.714;23.732;2023-03-26T06:25:30;94070.97;;;12.34;82.69
11329;BME280;5719;42.714;23.732;2023-03-26T06:27:57;94064.06;;;12.14;83.02
11329;BME280;5719;42.714;23.732;2023-03-26T06:30:24;94067.72;;;12.11;82.43
11329;BME280;5719;42.714;23.732;2023-03-26T06:32:51;94070.22;;;12.13;84.07
11329;BME280;5719;42.714;23.732;2023-03-26T06:35:18;94088.59;;;12.40;80.99
11329;BME280;5719;42.714;23.732;2023-03-26T06:37:45;94091.50;;;12.96;79.15
11329;BME280;5719;42.714;23.732;2023-03-26T06:40:13;94085.69;;;13.33;75.82
11329;BME280;5719;42.714;23.732;2023-03-26T06:42:41;94105.09;;;12.39;81.01
11329;BME280;5719;42.714;23.732;2023-03-26T06:45:08;94085.25;;;12.28;83.12
11329;BME280;5719;42.714;23.732;2023-03-26T06:47:36;94082.59;;;12.40;79.57
11329;BME280;5719;42.714;23.732;2023-03-26T06:50:04;94075.47;;;12.02;82.53
11329;BME280;5719;42.714;23.732;2023-03-26T06:52:31;94073.84;;;12.81;79.77
11329;BME280;5719;42.714;23.732;2023-03-26T06:54:58;94050.25;;;13.80;73.45
11329;BME280;5719;42.714;23.732;2023-03-26T06:57:25;94064.59;;;14.30;70.05
11329;BME280;5719;42.714;23.732;2023-03-26T06:59:53;94052.31;;;14.22;67.66
11329;BME280;5719;42.714;23.732;2023-03-26T07:02:20;94053.88;;;14.97;65.19
11329;BME280;5719;42.714;23.732;2023-03-26T07:04:47;94065.47;;;16.09;62.09
11329;BME280;5719;42.714;23.732;2023-03-26T07:07:14;94070.06;;;16.15;58.78
11329;BME280;5719;42.714;23.732;2023-03-26T07:09:42;94069.06;;;15.02;62.98
11329;BME280;5719;42.714;23.732;2023-03-26T07:12:09;94036.81;;;14.67;62.76
11329;BME280;5719;42.714;23.732;2023-03-26T07:14:36;94075.91;;;15.03;61.77
11329;BME280;5719;42.714;23.732;2023-03-26T07:17:04;94063.53;;;14.87;64.19
11329;BME280;5719;42.714;23.732;2023-03-26T07:19:32;94055.69;;;15.14;62.34
11329;BME280;5719;42.714;23.732;2023-03-26T07:21:59;94073.50;;;14.64;66.18
11329;BME280;5719;42.714;23.732;2023-03-26T07:24:27;94067.53;;;14.54;68.18
11329;BME280;5719;42.714;23.732;2023-03-26T07:26:59;94063.38;;;13.78;72.29
11329;BME280;5719;42.714;23.732;2023-03-26T07:29:34;94066.25;;;15.13;66.00
11329;BME280;5719;42.714;23.732;2023-03-26T07:32:11;94052.44;;;15.48;60.81
11329;BME280;5719;42.714;23.732;2023-03-26T07:34:47;94061.44;;;14.91;61.43
11329;BME280;5719;42.714;23.732;2023-03-26T07:37:26;94058.59;;;15.29;62.04
11329;BME280;5719;42.714;23.732;2023-03-26T07:39:59;94057.09;;;15.09;60.44
11329;BME280;5719;42.714;23.732;2023-03-26T07:42:37;94060.88;;;15.85;59.27
11329;BME280;5719;42.714;23.732;2023-03-26T07:45:14;94049.31;;;15.44;58.85
11329;BME280;5719;42.714;23.732;2023-03-26T07:47:46;94044.84;;;15.37;59.46
11329;BME280;5719;42.714;23.732;2023-03-26T07:50:14;94059.56;;;15.10;61.04
11329;BME280;5719;42.714;23.732;2023-03-26T07:52:42;94066.31;;;16.17;57.90
11329;BME280;5719;42.714;23.732;2023-03-26T07:55:12;94058.31;;;15.50;58.48
11329;BME280;5719;42.714;23.732;2023-03-26T07:57:47;94064.84;;;15.36;58.55
11329;BME280;5719;42.714;23.732;2023-03-26T08:00:20;94076.13;;;14.92;62.29
11329;BME280;5719;42.714;23.732;2023-03-26T08:03:14;94071.13;;;15.61;58.38
11329;BME280;5719;42.714;23.732;2023-03-26T08:05:51;94072.66;;;15.18;57.15
11329;BME280;5719;42.714;23.732;2023-03-26T08:08:23;94059.28;;;15.49;58.51
11329;BME280;5719;42.714;23.732;2023-03-26T08:11:04;94061.59;;;15.69;55.84
11329;BME280;5719;42.714;23.732;2023-03-26T08:13:51;94061.44;;;15.71;57.58
11329;BME280;5719;42.714;23.732;2023-03-26T08:16:24;94048.41;;;16.23;53.32
11329;BME280;5719;42.714;23.732;2023-03-26T08:19:03;94046.25;;;16.78;53.88
11329;BME280;5719;42.714;23.732;2023-03-26T08:21:40;94054.94;;;17.60;48.71
11329;BME280;5719;42.714;23.732;2023-03-26T08:24:13;94055.56;;;18.27;47.86
11329;BME280;5719;42.714;23.732;2023-03-26T08:26:48;94051.75;;;18.46;48.71
11329;BME280;5719;42.714;23.732;2023-03-26T08:29:23;94052.72;;;18.61;46.31
11329;BME280;5719;42.714;23.732;2023-03-26T08:31:52;94053.41;;;18.39;46.19
11329;BME280;5719;42.714;23.732;2023-03-26T08:34:23;94041.06;;;19.02;44.88
11329;BME280;5719;42.714;23.732;2023-03-26T08:36:50;94046.72;;;18.28;46.19
11329;BME280;5719;42.714;23.732;2023-03-26T08:39:17;94042.38;;;19.06;43.88
11329;BME280;5719;42.714;23.732;2023-03-26T08:48:30;94035.56;;;17.05;47.31
11329;BME280;5719;42.714;23.732;2023-03-26T08:51:24;94050.72;;;16.26;49.93
11329;BME280;5719;42.714;23.732;2023-03-26T08:54:10;94034.34;;;15.29;51.44
11329;BME280;5719;42.714;23.732;2023-03-26T08:56:50;94043.91;;;15.55;51.04
11329;BME280;5719;42.714;23.732;2023-03-26T09:02:45;94037.75;;;17.42;48.66
11329;BME280;5719;42.714;23.732;2023-03-26T09:05:44;94026.16;;;17.44;47.63
11329;BME280;5719;42.714;23.732;2023-03-26T09:08:43;94031.56;;;17.67;47.42
11329;BME280;5719;42.714;23.732;2023-03-26T09:11:37;94030.78;;;17.67;48.04
11329;BME280;5719;42.714;23.732;2023-03-26T09:14:46;94035.69;;;17.78;46.91
11329;BME280;5719;42.714;23.732;2023-03-26T09:20:47;94040.34;;;18.23;45.39
11329;BME280;5719;42.714;23.732;2023-03-26T09:23:49;94031.59;;;17.59;44.82
11329;BME280;5719;42.714;23.732;2023-03-26T09:26:25;94028.78;;;17.44;44.86
11329;BME280;5719;42.714;23.732;2023-03-26T09:32:27;94041.72;;;18.02;44.05
11329;BME280;5719;42.714;23.732;2023-03-26T09:35:11;94027.13;;;17.35;44.14
11329;BME280;5719;42.714;23.732;2023-03-26T09:37:51;94020.44;;;17.97;43.99
11329;BME280;5719;42.714;23.732;2023-03-26T09:40:31;94011.94;;;18.67;43.44
11329;BME280;5719;42.714;23.732;2023-03-26T09:43:21;94010.84;;;19.23;39.62
11329;BME280;5719;42.714;23.732;2023-03-26T09:45:59;94011.81;;;17.64;43.52
11329;BME280;5719;42.714;23.732;2023-03-26T09:48:50;94009.69;;;17.84;44.10
11329;BME280;5719;42.714;23.732;2023-03-26T09:51:39;94002.63;;;18.95;41.26
11329;BME280;5719;42.714;23.732;2023-03-26T09:57:28;93995.94;;;18.92;41.15
11329;BME280;5719;42.714;23.732;2023-03-26T10:00:08;93990.28;;;18.26;41.37
11329;BME280;5719;42.714;23.732;2023-03-26T10:02:54;93985.03;;;18.42;42.01
11329;BME280;5719;42.714;23.732;2023-03-26T10:05:43;93982.75;;;19.08;41.00
11329;BME280;5719;42.714;23.732;2023-03-26T10:08:27;93971.09;;;17.86;42.48
11329;BME280;5719;42.714;23.732;2023-03-26T10:11:01;93984.84;;;18.51;41.25
11329;BME280;5719;42.714;23.732;2023-03-26T10:13:40;93973.53;;;18.51;40.64
11329;BME280;5719;42.714;23.732;2023-03-26T10:16:19;93985.59;;;18.68;40.18
11329;BME280;5719;42.714;23.732;2023-03-26T10:18:57;93982.97;;;18.21;41.41
11329;BME280;5719;42.714;23.732;2023-03-26T10:21:35;93978.06;;;18.96;40.10
11329;BME280;5719;42.714;23.732;2023-03-26T10:24:29;93971.69;;;19.21;39.85
11329;BME280;5719;42.714;23.732;2023-03-26T10:27:07;93950.94;;;18.89;40.08
11329;BME280;5719;42.714;23.732;2023-03-26T10:32:35;93965.13;;;18.72;39.97
11329;BME280;5719;42.714;23.732;2023-03-26T10:35:19;93950.44;;;18.07;39.91
11329;BME280;5719;42.714;23.732;2023-03-26T10:37:59;93953.38;;;18.12;40.12
11329;BME280;5719;42.714;23.732;2023-03-26T10:40:31;93939.28;;;18.69;38.59
11329;BME280;5719;42.714;23.732;2023-03-26T10:43:21;93943.06;;;19.20;37.94
11329;BME280;5719;42.714;23.732;2023-03-26T10:46:05;93930.47;;;19.15;38.20
11329;BME280;5719;42.714;23.732;2023-03-26T10:49:00;93935.00;;;19.21;37.67
11329;BME280;5719;42.714;23.732;2023-03-26T10:51:44;93926.13;;;19.82;37.51
11329;BME280;5719;42.714;23.732;2023-03-26T10:54:21;93923.63;;;19.89;35.72
11329;BME280;5719;42.714;23.732;2023-03-26T10:56:53;93935.19;;;19.80;36.57
11329;BME280;5719;42.714;23.732;2023-03-26T10:59:23;93913.66;;;20.14;35.02
11329;BME280;5719;42.714;23.732;2023-03-26T11:02:02;93925.66;;;19.79;35.93
11329;BME280;5719;42.714;23.732;2023-03-26T11:04:39;93917.63;;;19.66;35.33
11329;BME280;5719;42.714;23.732;2023-03-26T11:07:17;93924.25;;;18.63;38.23
11329;BME280;5719;42.714;23.732;2023-03-26T11:09:52;93909.88;;;18.11;38.63
11329;BME280;5719;42.714;23.732;2023-03-26T11:12:24;93915.25;;;18.18;38.74
11329;BME280;5719;42.714;23.732;2023-03-26T11:15:06;93905.78;;;18.87;38.35
11329;BME280;5719;42.714;23.732;2023-03-26T11:17:44;93915.22;;;19.41;37.32
11329;BME280;5719;42.714;23.732;2023-03-26T11:20:19;93908.28;;;18.41;37.54
11329;BME280;5719;42.714;23.732;2023-03-26T11:23:01;93896.53;;;18.06;37.70
11329;BME280;5719;42.714;23.732;2023-03-26T11:25:55;93894.97;;;18.28;38.53
11329;BME280;5719;42.714;23.732;2023-03-26T11:31:20;93894.28;;;19.71;36.54
11329;BME280;5719;42.714;23.732;2023-03-26T11:33:55;93888.66;;;20.62;35.10
11329;BME280;5719;42.714;23.732;2023-03-26T11:36:28;93888.28;;;20.65;35.88
11329;BME280;5719;42.714;23.732;2023-03-26T11:38:57;93891.69;;;20.29;33.66
11329;BME280;5719;42.714;23.732;2023-03-26T11:41:27;93878.66;;;20.36;34.56
11329;BME280;5719;42.714;23.732;2023-03-26T11:43:58;93885.31;;;20.53;33.71
11329;BME280;5719;42.714;23.732;2023-03-26T11:46:28;93873.63;;;20.55;33.89
11329;BME280;5719;42.714;23.732;2023-03-26T11:48:58;93866.28;;;20.51;34.03
11329;BME280;5719;42.714;23.732;2023-03-26T11:51:29;93867.38;;;20.78;34.28
11329;BME280;5719;42.714;23.732;2023-03-26T11:53:57;93869.00;;;21.64;32.68
11329;BME280;5719;42.714;23.732;2023-03-26T11:56:28;93852.94;;;21.86;31.70
11329;BME280;5719;42.714;23.732;2023-03-26T11:58:59;93853.66;;;21.18;33.51
11329;BME280;5719;42.714;23.732;2023-03-26T12:01:39;93844.38;;;20.44;33.86
11329;BME280;5719;42.714;23.732;2023-03-26T12:04:12;93858.34;;;19.56;34.32
11329;BME280;5719;42.714;23.732;2023-03-26T12:06:53;93842.47;;;19.73;35.85
11329;BME280;5719;42.714;23.732;2023-03-26T12:09:23;93830.81;;;20.76;33.80
11329;BME280;5719;42.714;23.732;2023-03-26T12:11:52;93816.19;;;21.72;32.24
11329;BME280;5719;42.714;23.732;2023-03-26T12:14:23;93827.72;;;22.46;31.52
11329;BME280;5719;42.714;23.732;2023-03-26T12:16:59;93823.31;;;21.43;32.00
11329;BME280;5719;42.714;23.732;2023-03-26T12:19:34;93818.34;;;22.37;30.71
11329;BME280;5719;42.714;23.732;2023-03-26T12:22:01;93830.78;;;22.49;30.26
11329;BME280;5719;42.714;23.732;2023-03-26T12:24:29;93828.94;;;21.13;31.69
11329;BME280;5719;42.714;23.732;2023-03-26T12:26:58;93825.34;;;20.99;33.23
11329;BME280;5719;42.714;23.732;2023-03-26T12:29:27;93819.44;;;20.19;33.07
11329;BME280;5719;42.714;23.732;2023-03-26T12:31:55;93816.84;;;20.76;33.17
11329;BME280;5719;42.714;23.732;2023-03-26T12:34:29;93785.63;;;20.09;32.71
11329;BME280;5719;42.714;23.732;2023-03-26T12:36:59;93806.50;;;20.95;32.29
11329;BME280;5719;42.714;23.732;2023-03-26T12:39:31;93811.56;;;22.08;31.13
11329;BME280;5719;42.714;23.732;2023-03-26T12:42:00;93810.63;;;22.96;30.47
11329;BME280;5719;42.714;23.732;2023-03-26T12:44:29;93800.25;;;22.88;29.33
11329;BME280;5719;42.714;23.732;2023-03-26T12:47:15;93783.78;;;21.99;30.28
11329;BME280;5719;42.714;23.732;2023-03-26T12:49:47;93794.59;;;21.83;29.80
11329;BME280;5719;42.714;23.732;2023-03-26T12:52:44;93793.91;;;21.33;29.94
11329;BME280;5719;42.714;23.732;2023-03-26T12:55:35;93793.84;;;21.89;30.09
11329;BME280;5719;42.714;23.732;2023-03-26T12:58:16;93780.44;;;21.49;30.88
11329;BME280;5719;42.714;23.732;2023-03-26T13:00:55;93778.22;;;21.46;30.29
11329;BME280;5719;42.714;23.732;2023-03-26T13:03:35;93772.72;;;21.76;29.81
11329;BME280;5719;42.714;23.732;2023-03-26T13:06:24;93758.25;;;22.60;28.96
11329;BME280;5719;42.714;23.732;2023-03-26T13:09:31;93780.81;;;21.12;30.57
11329;BME280;5719;42.714;23.732;2023-03-26T13:12:18;93775.75;;;21.11;30.22
11329;BME280;5719;42.714;23.732;2023-03-26T13:15:01;93768.00;;;20.03;31.32
11329;BME280;5719;42.714;23.732;2023-03-26T13:17:37;93761.28;;;19.13;31.90
11329;BME280;5719;42.714;23.732;2023-03-26T13:20:09;93773.09;;;19.75;31.42
11329;BME280;5719;42.714;23.732;2023-03-26T13:22:47;93754.13;;;20.87;30.83
11329;BME280;5719;42.714;23.732;2023-03-26T13:25:25;93761.78;;;21.79;30.04
11329;BME280;5719;42.714;23.732;2023-03-26T13:28:03;93763.41;;;21.73;29.36
11329;BME280;5719;42.714;23.732;2023-03-26T13:30:38;93759.94;;;20.83;29.21
11329;BME280;5719;42.714;23.732;2023-03-26T13:33:19;93751.38;;;21.23;29.86
11329;BME280;5719;42.714;23.732;2023-03-26T13:35:58;93751.16;;;22.54;28.12
11329;BME280;5719;42.714;23.732;2023-03-26T13:38:36;93759.88;;;21.60;28.81
11329;BME280;5719;42.714;23.732;2023-03-26T13:41:09;93753.16;;;21.50;28.49
11329;BME280;5719;42.714;23.732;2023-03-26T13:43:50;93764.63;;;21.77;29.53
11329;BME280;5719;42.714;23.732;2023-03-26T13:46:28;93767.16;;;21.92;27.41
11329;BME280;5719;42.714;23.732;2023-03-26T13:48:59;93749.75;;;21.57;28.54
11329;BME280;5719;42.714;23.732;2023-03-26T13:51:32;93750.31;;;21.18;28.89
11329;BME280;5719;42.714;23.732;2023-03-26T13:54:07;93756.66;;;21.30;28.46